sensor_id;sensor_type;location;lat;lon;timestamp;temperature;humidity
41628;DHT22;27321;50.816;6.054;2023-07-20T00:01:44;20.50;69.30
41628;DHT22;27321;50.816;6.054;2023-07-20T00:04:46;20.40;69.20
41628;DHT22;27321;50.816;6.054;2023-07-20T00:07:47;20.40;69.00
41628;DHT22;27321;50.816;6.054;2023-07-20T00:10:52;20.40;69.40
41628;DHT22;27321;50.816;6.054;2023-07-20T00:13:53;20.30;69.60
41628;DHT22;27321;50.816;6.054;2023-07-20T00:16:55;20.30;69.50
41628;DHT22;27321;50.816;6.054;2023-07-20T00:19:56;20.20;69.50
41628;DHT22;27321;50.816;6.054;2023-07-20T00:22:58;20.10;69.60
41628;DHT22;27321;50.816;6.054;2023-07-20T00:25:59;20.00;69.60
41628;DHT22;27321;50.816;6.054;2023-07-20T00:28:59;19.90;70.00
41628;DHT22;27321;50.816;6.054;2023-07-20T00:32:00;19.90;69.80
41628;DHT22;27321;50.816;6.054;2023-07-20T00:35:01;19.90;70.00
41628;DHT22;27321;50.816;6.054;2023-07-20T00:38:04;19.80;70.10
41628;DHT22;27321;50.816;6.054;2023-07-20T00:41:05;19.80;70.10
41628;DHT22;27321;50.816;6.054;2023-07-20T00:44:06;19.80;70.10
41628;DHT22;27321;50.816;6.054;2023-07-20T00:47:07;19.70;70.20
41628;DHT22;27321;50.816;6.054;2023-07-20T00:50:09;19.70;70.20
41628;DHT22;27321;50.816;6.054;2023-07-20T00:53:11;19.60;70.30
41628;DHT22;27321;50.816;6.054;2023-07-20T00:56:12;19.60;70.30
41628;DHT22;27321;50.816;6.054;2023-07-20T00:59:14;19.50;70.40
41628;DHT22;27321;50.816;6.054;2023-07-20T01:02:15;19.50;70.70
41628;DHT22;27321;50.816;6.054;2023-07-20T01:05:16;19.40;70.70
41628;DHT22;27321;50.816;6.054;2023-07-20T01:14:43;19.20;70.80
41628;DHT22;27321;50.816;6.054;2023-07-20T01:17:44;19.10;71.10
41628;DHT22;27321;50.816;6.054;2023-07-20T01:20:46;19.10;70.90
41628;DHT22;27321;50.816;6.054;2023-07-20T01:24:00;19.00;71.30
41628;DHT22;27321;50.816;6.054;2023-07-20T01:30:55;19.00;71.20
41628;DHT22;27321;50.816;6.054;2023-07-20T01:34:17;19.10;71.20
41628;DHT22;27321;50.816;6.054;2023-07-20T01:37:20;19.00;71.00
41628;DHT22;27321;50.816;6.054;2023-07-20T01:40:22;19.00;70.80
41628;DHT22;27321;50.816;6.054;2023-07-20T01:43:27;19.00;70.90
41628;DHT22;27321;50.816;6.054;2023-07-20T01:46:28;18.90;70.90
41628;DHT22;27321;50.816;6.054;2023-07-20T01:49:29;18.90;71.00
41628;DHT22;27321;50.816;6.054;2023-07-20T01:52:30;19.00;71.00
41628;DHT22;27321;50.816;6.054;2023-07-20T01:55:31;19.00;70.90
41628;DHT22;27321;50.816;6.054;2023-07-20T01:58:32;18.90;70.70
41628;DHT22;27321;50.816;6.054;2023-07-20T02:01:33;19.00;70.80
41628;DHT22;27321;50.816;6.054;2023-07-20T02:04:34;18.90;70.80
41628;DHT22;27321;50.816;6.054;2023-07-20T02:07:36;18.90;70.80
41628;DHT22;27321;50.816;6.054;2023-07-20T02:10:37;18.90;70.90
41628;DHT22;27321;50.816;6.054;2023-07-20T02:13:38;19.00;70.70
41628;DHT22;27321;50.816;6.054;2023-07-20T02:16:39;18.90;70.50
41628;DHT22;27321;50.816;6.054;2023-07-20T02:19:41;19.00;70.90
41628;DHT22;27321;50.816;6.054;2023-07-20T02:22:42;19.00;70.70
41628;DHT22;27321;50.816;6.054;2023-07-20T02:25:43;19.00;70.70
41628;DHT22;27321;50.816;6.054;2023-07-20T02:28:44;19.00;70.70
41628;DHT22;27321;50.816;6.054;2023-07-20T02:31:47;19.00;70.60
41628;DHT22;27321;50.816;6.054;2023-07-20T02:34:48;19.00;70.40
41628;DHT22;27321;50.816;6.054;2023-07-20T02:37:49;19.00;70.40
41628;DHT22;27321;50.816;6.054;2023-07-20T02:40:50;19.00;70.20
41628;DHT22;27321;50.816;6.054;2023-07-20T02:43:52;19.00;70.30
41628;DHT22;27321;50.816;6.054;2023-07-20T02:46:53;19.00;70.00
41628;DHT22;27321;50.816;6.054;2023-07-20T02:49:54;19.00;70.00
41628;DHT22;27321;50.816;6.054;2023-07-20T02:52:54;19.00;70.00
41628;DHT22;27321;50.816;6.054;2023-07-20T02:55:55;19.00;69.70
41628;DHT22;27321;50.816;6.054;2023-07-20T02:58:56;19.00;69.90
41628;DHT22;27321;50.816;6.054;2023-07-20T03:01:58;19.00;69.90
41628;DHT22;27321;50.816;6.054;2023-07-20T03:04:59;19.00;69.80
41628;DHT22;27321;50.816;6.054;2023-07-20T03:08:01;19.00;70.00
41628;DHT22;27321;50.816;6.054;2023-07-20T03:11:03;19.10;69.70
41628;DHT22;27321;50.816;6.054;2023-07-20T03:14:04;19.00;69.60
41628;DHT22;27321;50.816;6.054;2023-07-20T03:17:05;19.00;69.80
41628;DHT22;27321;50.816;6.054;2023-07-20T03:20:07;19.00;69.60
41628;DHT22;27321;50.816;6.054;2023-07-20T03:23:10;18.90;69.50
41628;DHT22;27321;50.816;6.054;2023-07-20T03:26:11;18.80;69.80
41628;DHT22;27321;50.816;6.054;2023-07-20T03:29:12;18.80;70.10
41628;DHT22;27321;50.816;6.054;2023-07-20T03:32:13;18.80;70.10
41628;DHT22;27321;50.816;6.054;2023-07-20T03:35:14;18.70;70.20
41628;DHT22;27321;50.816;6.054;2023-07-20T03:38:16;18.60;70.20
41628;DHT22;27321;50.816;6.054;2023-07-20T03:41:17;18.60;70.40
41628;DHT22;27321;50.816;6.054;2023-07-20T03:44:20;18.50;70.60
41628;DHT22;27321;50.816;6.054;2023-07-20T03:47:21;18.50;70.60
41628;DHT22;27321;50.816;6.054;2023-07-20T03:50:22;18.50;70.60
41628;DHT22;27321;50.816;6.054;2023-07-20T03:53:23;18.60;70.70
41628;DHT22;27321;50.816;6.054;2023-07-20T03:56:24;18.50;70.60
41628;DHT22;27321;50.816;6.054;2023-07-20T03:59:25;18.50;70.70
41628;DHT22;27321;50.816;6.054;2023-07-20T04:02:26;18.50;70.60
41628;DHT22;27321;50.816;6.054;2023-07-20T04:05:27;18.50;70.90
41628;DHT22;27321;50.816;6.054;2023-07-20T04:08:28;18.50;71.20
41628;DHT22;27321;50.816;6.054;2023-07-20T04:11:29;18.50;71.10
41628;DHT22;27321;50.816;6.054;2023-07-20T04:14:30;18.50;71.20
41628;DHT22;27321;50.816;6.054;2023-07-20T04:17:31;18.50;71.30
41628;DHT22;27321;50.816;6.054;2023-07-20T04:20:32;18.50;71.40
41628;DHT22;27321;50.816;6.054;2023-07-20T04:23:33;18.50;71.20
41628;DHT22;27321;50.816;6.054;2023-07-20T04:26:36;18.60;71.30
41628;DHT22;27321;50.816;6.054;2023-07-20T04:29:38;18.60;71.20
41628;DHT22;27321;50.816;6.054;2023-07-20T04:32:39;18.60;71.20
41628;DHT22;27321;50.816;6.054;2023-07-20T04:35:50;18.60;71.10
41628;DHT22;27321;50.816;6.054;2023-07-20T04:38:56;18.60;71.40
41628;DHT22;27321;50.816;6.054;2023-07-20T04:41:57;18.70;71.40
41628;DHT22;27321;50.816;6.054;2023-07-20T04:44:59;18.70;71.20
41628;DHT22;27321;50.816;6.054;2023-07-20T04:48:00;18.70;71.30
41628;DHT22;27321;50.816;6.054;2023-07-20T04:51:02;18.70;71.30
41628;DHT22;27321;50.816;6.054;2023-07-20T04:54:04;18.70;71.30
41628;DHT22;27321;50.816;6.054;2023-07-20T04:57:11;18.80;71.30
41628;DHT22;27321;50.816;6.054;2023-07-20T05:00:18;18.80;71.10
41628;DHT22;27321;50.816;6.054;2023-07-20T05:03:20;18.90;71.20
41628;DHT22;27321;50.816;6.054;2023-07-20T05:06:21;19.00;71.10
41628;DHT22;27321;50.816;6.054;2023-07-20T05:09:22;18.90;71.00
41628;DHT22;27321;50.816;6.054;2023-07-20T05:12:26;19.00;71.20
41628;DHT22;27321;50.816;6.054;2023-07-20T05:15:30;19.00;71.10
41628;DHT22;27321;50.816;6.054;2023-07-20T05:18:34;19.00;71.20
41628;DHT22;27321;50.816;6.054;2023-07-20T05:21:35;19.00;71.10
41628;DHT22;27321;50.816;6.054;2023-07-20T05:24:36;19.00;70.90
41628;DHT22;27321;50.816;6.054;2023-07-20T05:27:38;19.00;70.50
41628;DHT22;27321;50.816;6.054;2023-07-20T05:30:40;19.00;70.80
41628;DHT22;27321;50.816;6.054;2023-07-20T05:33:41;19.00;71.00
41628;DHT22;27321;50.816;6.054;2023-07-20T05:36:42;19.00;71.10
41628;DHT22;27321;50.816;6.054;2023-07-20T05:39:43;19.10;71.10
41628;DHT22;27321;50.816;6.054;2023-07-20T05:42:47;19.10;70.90
41628;DHT22;27321;50.816;6.054;2023-07-20T05:45:52;19.10;71.10
41628;DHT22;27321;50.816;6.054;2023-07-20T05:48:54;19.30;71.20
41628;DHT22;27321;50.816;6.054;2023-07-20T05:51:55;19.30;70.70
41628;DHT22;27321;50.816;6.054;2023-07-20T05:54:57;19.30;70.40
41628;DHT22;27321;50.816;6.054;2023-07-20T05:57:58;19.30;70.30
41628;DHT22;27321;50.816;6.054;2023-07-20T06:00:59;19.30;70.60
41628;DHT22;27321;50.816;6.054;2023-07-20T06:04:00;19.30;70.80
41628;DHT22;27321;50.816;6.054;2023-07-20T06:07:01;19.30;70.90
41628;DHT22;27321;50.816;6.054;2023-07-20T06:10:02;19.30;70.60
41628;DHT22;27321;50.816;6.054;2023-07-20T06:13:03;19.40;70.70
41628;DHT22;27321;50.816;6.054;2023-07-20T06:16:05;19.40;70.50
41628;DHT22;27321;50.816;6.054;2023-07-20T06:19:06;19.30;70.60
41628;DHT22;27321;50.816;6.054;2023-07-20T06:22:07;19.40;70.60
41628;DHT22;27321;50.816;6.054;2023-07-20T06:25:08;19.50;70.50
41628;DHT22;27321;50.816;6.054;2023-07-20T06:28:09;19.50;70.40
41628;DHT22;27321;50.816;6.054;2023-07-20T06:31:11;19.50;70.50
41628;DHT22;27321;50.816;6.054;2023-07-20T06:34:12;19.60;69.70
41628;DHT22;27321;50.816;6.054;2023-07-20T06:37:13;19.60;70.10
41628;DHT22;27321;50.816;6.054;2023-07-20T06:40:14;19.60;69.60
41628;DHT22;27321;50.816;6.054;2023-07-20T06:43:16;19.60;69.60
41628;DHT22;27321;50.816;6.054;2023-07-20T06:46:17;19.60;69.50
41628;DHT22;27321;50.816;6.054;2023-07-20T06:49:25;19.60;69.40
41628;DHT22;27321;50.816;6.054;2023-07-20T06:52:27;19.70;69.80
41628;DHT22;27321;50.816;6.054;2023-07-20T06:55:28;19.80;69.60
41628;DHT22;27321;50.816;6.054;2023-07-20T06:58:29;19.80;69.60
41628;DHT22;27321;50.816;6.054;2023-07-20T07:01:30;19.90;68.80
41628;DHT22;27321;50.816;6.054;2023-07-20T07:04:31;19.90;68.40
41628;DHT22;27321;50.816;6.054;2023-07-20T07:07:32;19.90;67.80
41628;DHT22;27321;50.816;6.054;2023-07-20T07:10:35;20.00;68.60
41628;DHT22;27321;50.816;6.054;2023-07-20T07:13:36;20.10;67.90
41628;DHT22;27321;50.816;6.054;2023-07-20T07:16:37;20.10;68.40
41628;DHT22;27321;50.816;6.054;2023-07-20T07:19:38;20.10;67.30
41628;DHT22;27321;50.816;6.054;2023-07-20T07:22:41;20.10;67.60
41628;DHT22;27321;50.816;6.054;2023-07-20T07:25:44;20.10;66.50
41628;DHT22;27321;50.816;6.054;2023-07-20T07:28:45;20.10;67.30
41628;DHT22;27321;50.816;6.054;2023-07-20T07:31:46;20.10;67.30
41628;DHT22;27321;50.816;6.054;2023-07-20T07:34:47;20.30;66.80
41628;DHT22;27321;50.816;6.054;2023-07-20T07:37:49;20.30;66.40
41628;DHT22;27321;50.816;6.054;2023-07-20T07:40:50;20.40;66.40
41628;DHT22;27321;50.816;6.054;2023-07-20T07:43:51;20.40;65.90
41628;DHT22;27321;50.816;6.054;2023-07-20T07:46:52;20.40;65.70
41628;DHT22;27321;50.816;6.054;2023-07-20T07:49:53;20.40;66.70
41628;DHT22;27321;50.816;6.054;2023-07-20T07:52:54;20.50;67.00
41628;DHT22;27321;50.816;6.054;2023-07-20T07:55:55;20.60;66.10
41628;DHT22;27321;50.816;6.054;2023-07-20T07:58:56;20.60;63.90
41628;DHT22;27321;50.816;6.054;2023-07-20T08:01:57;20.80;63.00
41628;DHT22;27321;50.816;6.054;2023-07-20T08:04:59;20.70;63.50
41628;DHT22;27321;50.816;6.054;2023-07-20T08:08:02;20.80;61.80
41628;DHT22;27321;50.816;6.054;2023-07-20T08:11:04;20.80;62.90
41628;DHT22;27321;50.816;6.054;2023-07-20T08:14:05;20.80;62.10
41628;DHT22;27321;50.816;6.054;2023-07-20T08:17:06;20.80;61.30
41628;DHT22;27321;50.816;6.054;2023-07-20T08:20:08;20.70;61.60
41628;DHT22;27321;50.816;6.054;2023-07-20T08:23:13;20.60;61.20
41628;DHT22;27321;50.816;6.054;2023-07-20T08:26:17;20.70;61.60
41628;DHT22;27321;50.816;6.054;2023-07-20T08:29:35;20.80;61.70
41628;DHT22;27321;50.816;6.054;2023-07-20T08:32:38;20.90;62.20
41628;DHT22;27321;50.816;6.054;2023-07-20T08:35:40;20.90;61.60
41628;DHT22;27321;50.816;6.054;2023-07-20T08:38:41;21.00;61.90
41628;DHT22;27321;50.816;6.054;2023-07-20T08:41:46;21.00;61.90
41628;DHT22;27321;50.816;6.054;2023-07-20T08:44:48;21.10;62.60
41628;DHT22;27321;50.816;6.054;2023-07-20T08:47:50;21.30;61.40
41628;DHT22;27321;50.816;6.054;2023-07-20T08:50:52;21.40;60.90
41628;DHT22;27321;50.816;6.054;2023-07-20T08:53:57;21.40;59.10
41628;DHT22;27321;50.816;6.054;2023-07-20T08:57:01;21.50;60.30
41628;DHT22;27321;50.816;6.054;2023-07-20T09:00:04;21.50;57.60
41628;DHT22;27321;50.816;6.054;2023-07-20T09:03:05;21.50;59.20
41628;DHT22;27321;50.816;6.054;2023-07-20T09:06:06;21.50;59.40
41628;DHT22;27321;50.816;6.054;2023-07-20T09:09:08;21.60;59.30
41628;DHT22;27321;50.816;6.054;2023-07-20T09:12:15;21.70;59.40
41628;DHT22;27321;50.816;6.054;2023-07-20T09:15:17;21.70;56.90
41628;DHT22;27321;50.816;6.054;2023-07-20T09:18:29;21.80;57.20
41628;DHT22;27321;50.816;6.054;2023-07-20T09:21:31;21.80;56.10
41628;DHT22;27321;50.816;6.054;2023-07-20T09:24:32;21.60;54.80
41628;DHT22;27321;50.816;6.054;2023-07-20T09:27:43;21.70;56.10
41628;DHT22;27321;50.816;6.054;2023-07-20T09:30:45;21.80;56.10
41628;DHT22;27321;50.816;6.054;2023-07-20T09:33:47;22.00;56.90
41628;DHT22;27321;50.816;6.054;2023-07-20T09:36:48;22.00;57.60
41628;DHT22;27321;50.816;6.054;2023-07-20T09:39:52;21.90;57.40
41628;DHT22;27321;50.816;6.054;2023-07-20T09:42:56;21.90;57.60
41628;DHT22;27321;50.816;6.054;2023-07-20T09:46:05;21.90;57.60
41628;DHT22;27321;50.816;6.054;2023-07-20T09:49:08;21.90;56.70
41628;DHT22;27321;50.816;6.054;2023-07-20T09:52:11;22.00;56.60
41628;DHT22;27321;50.816;6.054;2023-07-20T09:55:13;22.00;56.30
41628;DHT22;27321;50.816;6.054;2023-07-20T09:58:14;22.10;56.50
41628;DHT22;27321;50.816;6.054;2023-07-20T10:01:20;22.10;55.60
41628;DHT22;27321;50.816;6.054;2023-07-20T10:04:23;22.10;55.70
41628;DHT22;27321;50.816;6.054;2023-07-20T10:07:27;22.10;54.70
41628;DHT22;27321;50.816;6.054;2023-07-20T10:10:29;22.10;54.30
41628;DHT22;27321;50.816;6.054;2023-07-20T10:13:30;22.00;55.40
41628;DHT22;27321;50.816;6.054;2023-07-20T10:16:35;22.00;56.10
41628;DHT22;27321;50.816;6.054;2023-07-20T10:22:53;22.00;57.10
41628;DHT22;27321;50.816;6.054;2023-07-20T10:25:54;22.00;55.20
41628;DHT22;27321;50.816;6.054;2023-07-20T10:28:56;22.00;54.40
41628;DHT22;27321;50.816;6.054;2023-07-20T10:31:57;22.00;55.40
41628;DHT22;27321;50.816;6.054;2023-07-20T10:34:58;22.00;55.50
41628;DHT22;27321;50.816;6.054;2023-07-20T10:38:03;22.10;55.60
41628;DHT22;27321;50.816;6.054;2023-07-20T10:41:04;22.20;55.50
41628;DHT22;27321;50.816;6.054;2023-07-20T10:44:20;22.20;54.60
41628;DHT22;27321;50.816;6.054;2023-07-20T10:47:21;22.30;55.40
41628;DHT22;27321;50.816;6.054;2023-07-20T10:50:22;22.40;53.70
41628;DHT22;27321;50.816;6.054;2023-07-20T10:53:23;22.40;53.60
41628;DHT22;27321;50.816;6.054;2023-07-20T10:56:26;22.30;54.00
41628;DHT22;27321;50.816;6.054;2023-07-20T11:02:42;22.20;53.70
41628;DHT22;27321;50.816;6.054;2023-07-20T11:05:53;22.30;53.90
41628;DHT22;27321;50.816;6.054;2023-07-20T11:08:56;22.30;52.90
41628;DHT22;27321;50.816;6.054;2023-07-20T11:12:12;22.30;52.40
41628;DHT22;27321;50.816;6.054;2023-07-20T11:15:16;22.30;53.20
41628;DHT22;27321;50.816;6.054;2023-07-20T11:18:19;22.50;53.80
41628;DHT22;27321;50.816;6.054;2023-07-20T11:21:20;22.60;51.80
41628;DHT22;27321;50.816;6.054;2023-07-20T11:24:22;22.60;50.60
41628;DHT22;27321;50.816;6.054;2023-07-20T11:27:23;22.70;50.50
41628;DHT22;27321;50.816;6.054;2023-07-20T11:30:25;22.70;50.40
41628;DHT22;27321;50.816;6.054;2023-07-20T11:33:26;22.70;51.20
41628;DHT22;27321;50.816;6.054;2023-07-20T11:36:27;22.60;50.50
41628;DHT22;27321;50.816;6.054;2023-07-20T11:39:29;22.70;50.30
41628;DHT22;27321;50.816;6.054;2023-07-20T11:42:30;22.80;49.00
41628;DHT22;27321;50.816;6.054;2023-07-20T11:45:31;22.80;49.20
41628;DHT22;27321;50.816;6.054;2023-07-20T11:48:33;22.90;50.20
41628;DHT22;27321;50.816;6.054;2023-07-20T11:51:34;23.00;50.00
41628;DHT22;27321;50.816;6.054;2023-07-20T11:54:38;23.00;50.10
41628;DHT22;27321;50.816;6.054;2023-07-20T11:57:40;23.10;49.10
41628;DHT22;27321;50.816;6.054;2023-07-20T12:00:44;23.20;49.20
41628;DHT22;27321;50.816;6.054;2023-07-20T12:03:47;23.30;48.70
41628;DHT22;27321;50.816;6.054;2023-07-20T12:06:48;23.40;50.20
41628;DHT22;27321;50.816;6.054;2023-07-20T12:10:09;23.40;48.80
41628;DHT22;27321;50.816;6.054;2023-07-20T12:13:10;23.50;47.70
41628;DHT22;27321;50.816;6.054;2023-07-20T12:16:15;23.60;48.20
41628;DHT22;27321;50.816;6.054;2023-07-20T12:19:17;23.70;48.40
41628;DHT22;27321;50.816;6.054;2023-07-20T12:22:18;23.80;48.70
41628;DHT22;27321;50.816;6.054;2023-07-20T12:25:19;23.90;48.80
41628;DHT22;27321;50.816;6.054;2023-07-20T12:28:21;24.00;48.40
41628;DHT22;27321;50.816;6.054;2023-07-20T12:31:22;23.90;46.10
41628;DHT22;27321;50.816;6.054;2023-07-20T12:34:24;23.90;46.40
41628;DHT22;27321;50.816;6.054;2023-07-20T12:37:26;23.90;46.70
41628;DHT22;27321;50.816;6.054;2023-07-20T12:40:27;23.80;45.40
41628;DHT22;27321;50.816;6.054;2023-07-20T12:43:29;23.60;44.80
41628;DHT22;27321;50.816;6.054;2023-07-20T12:46:32;23.60;44.70
41628;DHT22;27321;50.816;6.054;2023-07-20T12:49:35;23.70;45.50
41628;DHT22;27321;50.816;6.054;2023-07-20T12:52:37;23.90;45.50
41628;DHT22;27321;50.816;6.054;2023-07-20T12:55:41;23.90;43.90
41628;DHT22;27321;50.816;6.054;2023-07-20T12:58:42;23.90;43.50
41628;DHT22;27321;50.816;6.054;2023-07-20T13:01:47;24.00;44.70
41628;DHT22;27321;50.816;6.054;2023-07-20T13:04:48;24.10;44.90
41628;DHT22;27321;50.816;6.054;2023-07-20T13:07:49;24.20;44.30
41628;DHT22;27321;50.816;6.054;2023-07-20T13:10:53;24.20;42.50
41628;DHT22;27321;50.816;6.054;2023-07-20T13:13:57;24.20;44.20
41628;DHT22;27321;50.816;6.054;2023-07-20T13:16:58;24.30;43.90
41628;DHT22;27321;50.816;6.054;2023-07-20T13:19:59;24.50;43.70
41628;DHT22;27321;50.816;6.054;2023-07-20T13:23:00;24.50;43.20
41628;DHT22;27321;50.816;6.054;2023-07-20T13:26:01;24.60;43.10
41628;DHT22;27321;50.816;6.054;2023-07-20T13:29:02;24.60;43.10
41628;DHT22;27321;50.816;6.054;2023-07-20T13:32:04;24.60;43.40
41628;DHT22;27321;50.816;6.054;2023-07-20T13:35:07;24.60;42.90
41628;DHT22;27321;50.816;6.054;2023-07-20T13:38:08;24.60;42.50
41628;DHT22;27321;50.816;6.054;2023-07-20T13:41:10;24.70;41.80
41628;DHT22;27321;50.816;6.054;2023-07-20T13:44:11;24.60;42.80
41628;DHT22;27321;50.816;6.054;2023-07-20T13:47:12;24.60;42.70
41628;DHT22;27321;50.816;6.054;2023-07-20T13:50:13;24.50;43.30
41628;DHT22;27321;50.816;6.054;2023-07-20T13:53:13;24.50;42.60
41628;DHT22;27321;50.816;6.054;2023-07-20T13:56:16;24.50;43.00
41628;DHT22;27321;50.816;6.054;2023-07-20T13:59:17;24.40;42.40
41628;DHT22;27321;50.816;6.054;2023-07-20T14:02:18;24.40;42.20
41628;DHT22;27321;50.816;6.054;2023-07-20T14:05:19;24.40;42.60
41628;DHT22;27321;50.816;6.054;2023-07-20T14:08:21;24.60;43.30
41628;DHT22;27321;50.816;6.054;2023-07-20T14:11:22;24.70;41.90
41628;DHT22;27321;50.816;6.054;2023-07-20T14:14:23;24.80;42.50
41628;DHT22;27321;50.816;6.054;2023-07-20T14:17:24;24.80;41.40
41628;DHT22;27321;50.816;6.054;2023-07-20T14:20:25;24.80;41.80
41628;DHT22;27321;50.816;6.054;2023-07-20T14:23:26;24.90;42.20
41628;DHT22;27321;50.816;6.054;2023-07-20T14:26:27;24.90;40.90
41628;DHT22;27321;50.816;6.054;2023-07-20T14:29:28;25.00;42.10
41628;DHT22;27321;50.816;6.054;2023-07-20T14:32:31;25.00;42.20
41628;DHT22;27321;50.816;6.054;2023-07-20T14:35:34;25.00;39.40
41628;DHT22;27321;50.816;6.054;2023-07-20T14:38:35;25.10;40.20
41628;DHT22;27321;50.816;6.054;2023-07-20T14:41:36;25.10;39.60
41628;DHT22;27321;50.816;6.054;2023-07-20T14:44:37;25.10;40.40
41628;DHT22;27321;50.816;6.054;2023-07-20T14:47:38;25.30;41.30
41628;DHT22;27321;50.816;6.054;2023-07-20T14:50:39;25.20;39.40
41628;DHT22;27321;50.816;6.054;2023-07-20T14:53:40;25.20;39.70
41628;DHT22;27321;50.816;6.054;2023-07-20T14:56:48;25.10;40.10
41628;DHT22;27321;50.816;6.054;2023-07-20T14:59:53;25.00;39.30
41628;DHT22;27321;50.816;6.054;2023-07-20T15:02:54;24.90;39.00
41628;DHT22;27321;50.816;6.054;2023-07-20T15:05:56;24.80;40.00
41628;DHT22;27321;50.816;6.054;2023-07-20T15:08:57;24.80;40.80
41628;DHT22;27321;50.816;6.054;2023-07-20T15:11:58;24.80;40.10
41628;DHT22;27321;50.816;6.054;2023-07-20T15:18:06;24.90;40.00
41628;DHT22;27321;50.816;6.054;2023-07-20T15:21:07;24.80;39.60
41628;DHT22;27321;50.816;6.054;2023-07-20T15:24:08;24.60;38.90
41628;DHT22;27321;50.816;6.054;2023-07-20T15:27:09;24.60;39.10
41628;DHT22;27321;50.816;6.054;2023-07-20T15:30:10;24.60;39.60
41628;DHT22;27321;50.816;6.054;2023-07-20T15:33:12;24.60;39.80
41628;DHT22;27321;50.816;6.054;2023-07-20T15:36:12;24.70;40.40
41628;DHT22;27321;50.816;6.054;2023-07-20T15:39:13;24.90;39.60
41628;DHT22;27321;50.816;6.054;2023-07-20T15:42:14;25.00;38.60
41628;DHT22;27321;50.816;6.054;2023-07-20T15:45:15;25.00;39.00
41628;DHT22;27321;50.816;6.054;2023-07-20T15:48:17;25.10;38.60
41628;DHT22;27321;50.816;6.054;2023-07-20T15:51:17;25.10;39.10
41628;DHT22;27321;50.816;6.054;2023-07-20T15:54:19;25.10;39.20
41628;DHT22;27321;50.816;6.054;2023-07-20T15:57:21;25.10;39.10
41628;DHT22;27321;50.816;6.054;2023-07-20T16:00:22;25.10;39.20
41628;DHT22;27321;50.816;6.054;2023-07-20T16:03:23;25.10;39.40
41628;DHT22;27321;50.816;6.054;2023-07-20T16:06:26;25.10;39.70
41628;DHT22;27321;50.816;6.054;2023-07-20T16:09:28;25.10;39.10
41628;DHT22;27321;50.816;6.054;2023-07-20T16:12:29;25.10;40.00
41628;DHT22;27321;50.816;6.054;2023-07-20T16:15:32;25.10;40.40
41628;DHT22;27321;50.816;6.054;2023-07-20T16:18:33;25.20;40.70
41628;DHT22;27321;50.816;6.054;2023-07-20T16:21:34;25.10;39.70
41628;DHT22;27321;50.816;6.054;2023-07-20T16:24:35;25.10;39.50
41628;DHT22;27321;50.816;6.054;2023-07-20T16:27:36;25.10;40.20
41628;DHT22;27321;50.816;6.054;2023-07-20T16:30:37;25.10;39.90
41628;DHT22;27321;50.816;6.054;2023-07-20T16:33:39;25.10;40.30
41628;DHT22;27321;50.816;6.054;2023-07-20T16:36:40;25.10;40.30
41628;DHT22;27321;50.816;6.054;2023-07-20T16:39:42;25.10;39.80
41628;DHT22;27321;50.816;6.054;2023-07-20T16:42:44;25.00;40.00
41628;DHT22;27321;50.816;6.054;2023-07-20T16:45:49;25.00;40.10
41628;DHT22;27321;50.816;6.054;2023-07-20T16:48:50;25.00;40.30
41628;DHT22;27321;50.816;6.054;2023-07-20T16:51:51;25.00;40.40
41628;DHT22;27321;50.816;6.054;2023-07-20T16:54:53;25.10;40.20
41628;DHT22;27321;50.816;6.054;2023-07-20T16:57:54;25.10;40.40
41628;DHT22;27321;50.816;6.054;2023-07-20T17:01:00;25.20;40.00
41628;DHT22;27321;50.816;6.054;2023-07-20T17:04:05;25.30;39.70
41628;DHT22;27321;50.816;6.054;2023-07-20T17:07:06;25.30;39.60
41628;DHT22;27321;50.816;6.054;2023-07-20T17:10:07;25.20;40.00
41628;DHT22;27321;50.816;6.054;2023-07-20T17:13:09;25.20;39.90
41628;DHT22;27321;50.816;6.054;2023-07-20T17:16:11;25.10;39.00
41628;DHT22;27321;50.816;6.054;2023-07-20T17:19:12;24.90;38.80
41628;DHT22;27321;50.816;6.054;2023-07-20T17:22:13;24.80;38.70
41628;DHT22;27321;50.816;6.054;2023-07-20T17:25:14;24.80;39.70
41628;DHT22;27321;50.816;6.054;2023-07-20T17:28:15;24.80;41.10
41628;DHT22;27321;50.816;6.054;2023-07-20T17:31:19;24.80;41.80
41628;DHT22;27321;50.816;6.054;2023-07-20T17:34:20;24.80;41.80
41628;DHT22;27321;50.816;6.054;2023-07-20T17:37:22;24.70;41.90
41628;DHT22;27321;50.816;6.054;2023-07-20T17:40:22;24.70;42.00
41628;DHT22;27321;50.816;6.054;2023-07-20T17:43:24;24.60;42.10
41628;DHT22;27321;50.816;6.054;2023-07-20T17:46:25;24.50;41.80
41628;DHT22;27321;50.816;6.054;2023-07-20T17:49:26;24.50;42.40
41628;DHT22;27321;50.816;6.054;2023-07-20T17:52:27;24.40;43.30
41628;DHT22;27321;50.816;6.054;2023-07-20T17:55:28;24.30;43.50
41628;DHT22;27321;50.816;6.054;2023-07-20T17:58:29;24.20;43.90
41628;DHT22;27321;50.816;6.054;2023-07-20T18:01:31;24.20;44.00
41628;DHT22;27321;50.816;6.054;2023-07-20T18:04:32;24.00;44.40
41628;DHT22;27321;50.816;6.054;2023-07-20T18:07:33;24.00;44.50
41628;DHT22;27321;50.816;6.054;2023-07-20T18:10:34;23.90;44.60
41628;DHT22;27321;50.816;6.054;2023-07-20T18:13:35;23.80;44.90
41628;DHT22;27321;50.816;6.054;2023-07-20T18:16:36;23.70;45.00
41628;DHT22;27321;50.816;6.054;2023-07-20T18:19:38;23.60;45.40
41628;DHT22;27321;50.816;6.054;2023-07-20T18:22:39;23.50;45.70
41628;DHT22;27321;50.816;6.054;2023-07-20T18:25:42;23.50;45.90
41628;DHT22;27321;50.816;6.054;2023-07-20T18:28:43;23.50;46.10
41628;DHT22;27321;50.816;6.054;2023-07-20T18:31:44;23.50;45.80
41628;DHT22;27321;50.816;6.054;2023-07-20T18:34:45;23.50;45.90
41628;DHT22;27321;50.816;6.054;2023-07-20T18:37:46;23.50;46.00
41628;DHT22;27321;50.816;6.054;2023-07-20T18:40:49;23.50;45.40
41628;DHT22;27321;50.816;6.054;2023-07-20T18:43:50;23.40;45.50
41628;DHT22;27321;50.816;6.054;2023-07-20T18:46:51;23.30;45.40
41628;DHT22;27321;50.816;6.054;2023-07-20T18:49:52;23.20;45.20
41628;DHT22;27321;50.816;6.054;2023-07-20T18:52:55;23.10;45.20
41628;DHT22;27321;50.816;6.054;2023-07-20T18:55:57;23.00;45.20
41628;DHT22;27321;50.816;6.054;2023-07-20T18:58:58;23.00;45.20
41628;DHT22;27321;50.816;6.054;2023-07-20T19:02:00;23.00;45.50
41628;DHT22;27321;50.816;6.054;2023-07-20T19:05:01;22.90;45.40
41628;DHT22;27321;50.816;6.054;2023-07-20T19:08:02;22.90;45.70
41628;DHT22;27321;50.816;6.054;2023-07-20T19:11:03;22.80;45.80
41628;DHT22;27321;50.816;6.054;2023-07-20T19:14:04;22.80;46.00
41628;DHT22;27321;50.816;6.054;2023-07-20T19:17:06;22.60;50.50
41628;DHT22;27321;50.816;6.054;2023-07-20T19:20:07;22.40;53.40
41628;DHT22;27321;50.816;6.054;2023-07-20T19:23:08;22.00;59.10
41628;DHT22;27321;50.816;6.054;2023-07-20T19:26:10;21.50;62.40
41628;DHT22;27321;50.816;6.054;2023-07-20T19:29:11;21.10;66.30